Time;durP1;ratioP1;P1;durP2;ratioP2;P2;SDS_P1;SDS_P2;PMS_P1;PMS_P2;Temp;Humidity;BMP_temperature;BMP_pressure;BME280_temperature;BME280_humidity;BME280_pressure;Samples;Min_cycle;Max_cycle;Signal;HPM_P1;HPM_P2
2021/09/01 00:01:49;;;;;;;9.23;1.90;;;;;;;;;;4999617;28;20036;-57
2021/09/01 00:04:15;;;;;;;5.13;1.63;;;;;;;;;;5002735;28;20682;-57
2021/09/01 00:06:41;;;;;;;11.35;1.73;;;;;;;;;;5005639;28;20493;-57
2021/09/01 00:09:06;;;;;;;9.00;1.45;;;;;;;;;;5005244;28;20489;-57
2021/09/01 00:11:32;;;;;;;5.80;1.80;;;;;;;;;;5001750;28;20030;-57
2021/09/01 00:13:57;;;;;;;5.47;1.58;;;;;;;;;;5003072;28;20046;-57
2021/09/01 00:16:26;;;;;;;13.30;1.80;;;;;;;;;;4999968;28;20025;-57
2021/09/01 00:19:03;;;;;;;2.92;1.50;;;;;;;;;;4994895;28;20320;-57
2021/09/01 00:21:29;;;;;;;5.85;1.48;;;;;;;;;;4998388;28;20037;-56
2021/09/01 00:23:55;;;;;;;7.40;1.85;;;;;;;;;;5000828;28;20034;-57
2021/09/01 00:26:21;;;;;;;7.38;1.60;;;;;;;;;;5000686;28;20238;-58
2021/09/01 00:28:47;;;;;;;11.30;1.73;;;;;;;;;;5004639;28;20026;-57
2021/09/01 00:31:13;;;;;;;7.63;1.65;;;;;;;;;;5000846;28;20480;-57
2021/09/01 00:33:39;;;;;;;6.70;1.65;;;;;;;;;;5000520;28;20531;-57
2021/09/01 00:36:05;;;;;;;7.28;1.75;;;;;;;;;;5000565;28;20041;-57
2021/09/01 00:38:31;;;;;;;7.25;1.90;;;;;;;;;;5002101;28;20022;-57
2021/09/01 00:40:57;;;;;;;4.80;2.00;;;;;;;;;;4998558;28;20069;-57
2021/09/01 00:43:23;;;;;;;6.80;1.65;;;;;;;;;;5001636;28;20045;-57
2021/09/01 00:45:49;;;;;;;8.73;1.90;;;;;;;;;;5000314;28;20033;-57
2021/09/01 00:48:22;;;;;;;11.50;2.00;;;;;;;;;;4998235;28;20118;-57
2021/09/01 00:50:58;;;;;;;4.90;1.30;;;;;;;;;;4995139;28;20046;-57
2021/09/01 00:53:27;;;;;;;9.48;1.65;;;;;;;;;;5005008;28;20022;-56
2021/09/01 00:55:57;;;;;;;8.88;1.90;;;;;;;;;;5001765;28;20034;-57
2021/09/01 00:58:23;;;;;;;5.88;1.52;;;;;;;;;;5001224;28;20030;-57
2021/09/01 01:03:17;;;;;;;6.90;1.50;;;;;;;;;;5004728;28;20331;-57
2021/09/01 01:05:44;;;;;;;6.97;2.67;;;;;;;;;;4998389;28;20038;-57
2021/09/01 01:08:11;;;;;;;5.15;1.48;;;;;;;;;;4996241;28;20133;-57
2021/09/01 01:10:38;;;;;;;8.50;2.00;;;;;;;;;;5003691;28;20566;-57
2021/09/01 01:13:04;;;;;;;6.68;1.38;;;;;;;;;;5001432;28;20516;-56
2021/09/01 01:15:30;;;;;;;7.13;1.52;;;;;;;;;;5005275;28;20038;-57
2021/09/01 01:17:55;;;;;;;8.57;1.90;;;;;;;;;;5004229;28;20022;-57
2021/09/01 01:20:21;;;;;;;3.00;1.48;;;;;;;;;;5002186;28;20037;-57
2021/09/01 01:22:47;;;;;;;6.20;1.83;;;;;;;;;;5005539;28;20481;-57
2021/09/01 01:25:40;;;;;;;7.15;1.42;;;;;;;;;;4999797;28;20501;-57
2021/09/01 01:28:06;;;;;;;6.40;1.52;;;;;;;;;;5002983;28;20129;-57
2021/09/01 01:30:32;;;;;;;12.50;1.73;;;;;;;;;;5007385;28;20092;-57
2021/09/01 01:32:58;;;;;;;6.00;1.98;;;;;;;;;;5007908;28;20453;-57
2021/09/01 01:35:41;;;;;;;6.03;1.77;;;;;;;;;;5000599;28;20076;-57
2021/09/01 01:38:12;;;;;;;9.77;1.65;;;;;;;;;;4999187;28;20372;-57
2021/09/01 01:40:40;;;;;;;6.65;1.30;;;;;;;;;;5007263;28;20058;-56
2021/09/01 01:43:06;;;;;;;11.90;2.05;;;;;;;;;;5003661;28;20072;-57
2021/09/01 01:45:40;;;;;;;5.93;1.92;;;;;;;;;;5003928;28;20030;-57
2021/09/01 01:48:07;;;;;;;7.13;2.78;;;;;;;;;;5000245;28;20052;-58
2021/09/01 01:50:33;;;;;;;7.72;1.38;;;;;;;;;;5003555;28;20077;-57
2021/09/01 01:52:59;;;;;;;7.38;1.13;;;;;;;;;;4999613;28;20032;-57
2021/09/01 01:55:24;;;;;;;5.97;1.00;;;;;;;;;;5002995;28;20452;-58
2021/09/01 01:57:50;;;;;;;5.40;1.20;;;;;;;;;;5006128;28;20038;-57
2021/09/01 02:00:16;;;;;;;7.05;0.95;;;;;;;;;;5004834;28;20419;-57
2021/09/01 02:02:41;;;;;;;12.07;1.25;;;;;;;;;;5008427;28;20477;-57
2021/09/01 02:05:08;;;;;;;6.55;0.82;;;;;;;;;;5000317;28;20104;-57
2021/09/01 02:07:34;;;;;;;10.90;1.42;;;;;;;;;;5005587;28;20049;-57
2021/09/01 02:10:00;;;;;;;8.65;1.10;;;;;;;;;;5002719;28;20042;-57
2021/09/01 02:12:29;;;;;;;3.85;0.85;;;;;;;;;;5002670;28;20061;-57
2021/09/01 02:14:59;;;;;;;6.07;1.10;;;;;;;;;;5004077;28;20125;-57
2021/09/01 02:17:28;;;;;;;10.48;1.15;;;;;;;;;;5004206;28;20037;-57
2021/09/01 02:19:54;;;;;;;4.97;0.70;;;;;;;;;;5001507;28;20037;-57
2021/09/01 02:22:20;;;;;;;5.40;0.70;;;;;;;;;;5007882;28;20038;-56
2021/09/01 02:24:46;;;;;;;5.50;0.70;;;;;;;;;;5005855;28;20433;-57
2021/09/01 02:27:12;;;;;;;7.78;0.90;;;;;;;;;;5009142;28;20497;-57
2021/09/01 02:29:37;;;;;;;3.80;0.70;;;;;;;;;;5012004;28;20065;-55
2021/09/01 02:32:04;;;;;;;9.65;0.85;;;;;;;;;;5008127;28;20041;-57
2021/09/01 02:34:30;;;;;;;6.93;0.70;;;;;;;;;;4999973;28;20512;-56
2021/09/01 02:36:56;;;;;;;10.98;1.20;;;;;;;;;;5003192;28;20038;-56
2021/09/01 02:39:22;;;;;;;3.70;0.80;;;;;;;;;;5000006;28;20061;-56
2021/09/01 02:41:47;;;;;;;11.55;1.75;;;;;;;;;;5002446;28;20042;-57
2021/09/01 02:44:13;;;;;;;8.80;1.15;;;;;;;;;;5003630;28;20030;-56
2021/09/01 02:46:38;;;;;;;10.45;0.60;;;;;;;;;;5003958;28;20030;-57
2021/09/01 02:49:04;;;;;;;12.02;0.77;;;;;;;;;;4999499;28;20413;-56
2021/09/01 02:51:29;;;;;;;6.47;0.47;;;;;;;;;;5007814;28;20559;-57
2021/09/01 02:53:55;;;;;;;10.82;0.68;;;;;;;;;;5005907;28;20497;-56
2021/09/01 02:56:20;;;;;;;19.42;1.60;;;;;;;;;;4998430;28;20088;-56
2021/09/01 02:58:46;;;;;;;10.52;1.00;;;;;;;;;;5003101;28;20038;-57
2021/09/01 03:01:11;;;;;;;8.20;0.88;;;;;;;;;;5006460;28;20508;-56
2021/09/01 03:03:37;;;;;;;7.75;0.90;;;;;;;;;;5002169;28;20489;-57
2021/09/01 03:06:02;;;;;;;5.47;0.60;;;;;;;;;;5003182;28;20041;-57
2021/09/01 03:08:28;;;;;;;4.80;0.63;;;;;;;;;;4998870;28;20117;-57
2021/09/01 03:10:54;;;;;;;8.27;1.05;;;;;;;;;;4998995;28;20116;-57
2021/09/01 03:13:19;;;;;;;7.05;0.63;;;;;;;;;;5002687;28;20029;-56
2021/09/01 03:15:45;;;;;;;5.53;0.85;;;;;;;;;;5001930;28;20033;-56
2021/09/01 03:18:10;;;;;;;5.45;0.70;;;;;;;;;;4997449;28;20346;-54
2021/09/01 03:20:36;;;;;;;8.88;1.30;;;;;;;;;;5004318;28;20026;-56
2021/09/01 03:23:01;;;;;;;7.05;0.95;;;;;;;;;;5004774;28;20080;-56
2021/09/01 03:25:27;;;;;;;9.07;1.17;;;;;;;;;;4996104;28;20045;-57
2021/09/01 03:27:53;;;;;;;4.47;1.02;;;;;;;;;;5004971;28;20129;-56
2021/09/01 03:30:18;;;;;;;7.93;1.42;;;;;;;;;;5005451;28;20030;-57
2021/09/01 03:32:44;;;;;;;12.45;1.17;;;;;;;;;;5003875;28;20124;-56
2021/09/01 03:35:09;;;;;;;3.95;0.82;;;;;;;;;;5005938;28;20044;-56
2021/09/01 03:37:35;;;;;;;20.92;2.65;;;;;;;;;;4996794;28;20033;-56
2021/09/01 03:40:01;;;;;;;9.77;1.27;;;;;;;;;;5000087;28;20486;-56
2021/09/01 03:42:27;;;;;;;6.53;1.33;;;;;;;;;;5005215;28;20037;-56
2021/09/01 03:44:52;;;;;;;11.07;1.10;;;;;;;;;;4998088;28;20421;-56
2021/09/01 03:47:18;;;;;;;7.97;1.25;;;;;;;;;;5002341;28;20056;-56
2021/09/01 03:49:43;;;;;;;7.03;0.80;;;;;;;;;;5003778;28;20058;-55
2021/09/01 03:52:09;;;;;;;10.75;1.20;;;;;;;;;;4997849;28;20120;-56
2021/09/01 03:54:35;;;;;;;8.10;1.10;;;;;;;;;;4995424;28;20047;-56
2021/09/01 03:57:00;;;;;;;9.93;1.90;;;;;;;;;;5001095;28;20026;-57
2021/09/01 03:59:26;;;;;;;10.63;1.77;;;;;;;;;;5002472;28;20542;-56
2021/09/01 04:01:51;;;;;;;7.88;1.30;;;;;;;;;;5001945;28;20107;-55
2021/09/01 04:04:17;;;;;;;10.52;1.55;;;;;;;;;;4999529;28;20393;-56
2021/09/01 04:06:43;;;;;;;10.82;1.52;;;;;;;;;;4998370;28;20520;-56
2021/09/01 04:09:09;;;;;;;6.40;1.15;;;;;;;;;;5001611;28;20460;-56
2021/09/01 04:11:35;;;;;;;7.22;1.27;;;;;;;;;;4998537;28;20041;-56
2021/09/01 04:14:00;;;;;;;6.32;1.13;;;;;;;;;;5005818;28;20041;-55
2021/09/01 04:16:26;;;;;;;6.70;1.10;;;;;;;;;;5002187;28;20025;-56
2021/09/01 04:18:51;;;;;;;8.90;1.20;;;;;;;;;;4999462;28;20589;-56
2021/09/01 04:21:17;;;;;;;9.85;2.45;;;;;;;;;;5003473;28;20512;-56
2021/09/01 04:23:42;;;;;;;6.72;1.05;;;;;;;;;;4998309;28;20342;-55
2021/09/01 04:26:08;;;;;;;7.90;1.25;;;;;;;;;;5003476;28;20037;-56
2021/09/01 04:28:34;;;;;;;10.48;1.05;;;;;;;;;;5001705;28;20026;-57
2021/09/01 04:30:59;;;;;;;6.97;1.40;;;;;;;;;;5001186;28;20096;-56
2021/09/01 04:33:25;;;;;;;5.22;1.10;;;;;;;;;;5000382;28;20038;-56
2021/09/01 04:35:50;;;;;;;8.82;1.23;;;;;;;;;;5000490;28;20041;-56
2021/09/01 04:38:16;;;;;;;4.72;1.17;;;;;;;;;;4995752;28;20026;-56
2021/09/01 04:40:41;;;;;;;6.97;1.20;;;;;;;;;;4996726;28;20050;-56
2021/09/01 04:43:07;;;;;;;6.80;1.63;;;;;;;;;;4998540;28;20120;-56
2021/09/01 04:45:33;;;;;;;6.95;1.30;;;;;;;;;;4996674;28;20049;-56
2021/09/01 04:47:59;;;;;;;5.38;1.40;;;;;;;;;;5000879;28;20037;-57
2021/09/01 04:50:25;;;;;;;5.47;1.15;;;;;;;;;;4997766;28;20037;-56
2021/09/01 04:52:50;;;;;;;3.65;0.80;;;;;;;;;;5001741;28;20029;-56
2021/09/01 04:55:17;;;;;;;5.32;1.10;;;;;;;;;;5002127;28;20396;-56
2021/09/01 04:57:43;;;;;;;5.32;1.20;;;;;;;;;;4999497;28;20033;-55
2021/09/01 05:00:11;;;;;;;7.32;1.25;;;;;;;;;;4999814;28;20555;-56
2021/09/01 05:02:36;;;;;;;9.80;1.98;;;;;;;;;;5002157;28;20041;-56
2021/09/01 05:05:02;;;;;;;11.18;1.63;;;;;;;;;;4997793;28;20026;-57
2021/09/01 05:07:28;;;;;;;8.93;1.48;;;;;;;;;;5001275;28;20030;-57
2021/09/01 05:09:53;;;;;;;6.45;1.75;;;;;;;;;;4998845;28;20057;-55
2021/09/01 05:12:19;;;;;;;4.20;1.25;;;;;;;;;;4996874;28;20425;-56
2021/09/01 05:14:44;;;;;;;6.93;1.30;;;;;;;;;;5002043;28;20505;-57
2021/09/01 05:17:10;;;;;;;10.80;1.35;;;;;;;;;;4998975;28;20038;-56
2021/09/01 05:19:35;;;;;;;7.57;1.40;;;;;;;;;;4995859;28;20038;-57
2021/09/01 05:22:05;;;;;;;9.45;2.83;;;;;;;;;;4998437;28;20049;-57
2021/09/01 05:24:31;;;;;;;9.45;2.08;;;;;;;;;;4998496;28;20037;-57
2021/09/01 05:27:06;;;;;;;6.15;1.20;;;;;;;;;;5004092;28;20026;-57
2021/09/01 05:29:37;;;;;;;9.95;1.67;;;;;;;;;;4996925;28;20023;-57
2021/09/01 05:32:05;;;;;;;9.85;1.70;;;;;;;;;;4998264;28;20034;-57
2021/09/01 05:34:31;;;;;;;12.10;1.70;;;;;;;;;;4998892;28;20056;-56
2021/09/01 05:36:57;;;;;;;12.55;1.65;;;;;;;;;;4997594;28;20038;-57
2021/09/01 05:39:23;;;;;;;8.68;1.75;;;;;;;;;;5000431;28;20057;-57
2021/09/01 05:41:50;;;;;;;8.13;1.58;;;;;;;;;;4999514;28;20529;-57
2021/09/01 05:44:15;;;;;;;8.07;1.92;;;;;;;;;;5003555;28;20033;-57
2021/09/01 05:46:41;;;;;;;9.60;1.45;;;;;;;;;;5001884;28;20034;-57
2021/09/01 05:49:09;;;;;;;6.57;1.70;;;;;;;;;;4998700;28;20559;-58
2021/09/01 05:51:35;;;;;;;9.05;1.60;;;;;;;;;;4992836;28;20073;-57
2021/09/01 05:54:00;;;;;;;9.63;1.55;;;;;;;;;;5006472;28;20034;-57
2021/09/01 05:56:31;;;;;;;4.82;1.65;;;;;;;;;;4995467;28;20111;-57
2021/09/01 05:58:59;;;;;;;7.20;1.50;;;;;;;;;;5004011;28;20117;-57
2021/09/01 06:01:28;;;;;;;10.15;1.80;;;;;;;;;;5002861;28;20475;-58
2021/09/01 06:03:58;;;;;;;9.27;1.60;;;;;;;;;;5006037;28;20033;-57
2021/09/01 06:06:27;;;;;;;11.52;1.60;;;;;;;;;;5008267;28;20057;-55
2021/09/01 06:08:57;;;;;;;9.52;1.95;;;;;;;;;;5005514;28;20026;-57
2021/09/01 06:11:24;;;;;;;8.45;1.77;;;;;;;;;;5000077;28;20036;-57
2021/09/01 06:13:50;;;;;;;6.63;1.90;;;;;;;;;;5005052;28;20173;-57
2021/09/01 06:16:16;;;;;;;5.47;1.73;;;;;;;;;;5006844;28;20108;-57
2021/09/01 06:18:41;;;;;;;8.57;1.88;;;;;;;;;;5003076;28;20575;-57
2021/09/01 06:21:06;;;;;;;9.90;2.13;;;;;;;;;;5001354;28;20113;-57
2021/09/01 06:23:34;;;;;;;10.85;1.95;;;;;;;;;;5002621;28;20030;-57
2021/09/01 06:25:59;;;;;;;10.40;1.88;;;;;;;;;;5008511;28;20604;-57
2021/09/01 06:28:25;;;;;;;8.40;2.30;;;;;;;;;;5005990;28;20034;-57
2021/09/01 06:30:50;;;;;;;6.82;1.90;;;;;;;;;;5009466;28;20030;-57
2021/09/01 06:33:16;;;;;;;8.15;2.22;;;;;;;;;;5007666;28;20022;-56
2021/09/01 06:35:42;;;;;;;7.88;2.03;;;;;;;;;;5001911;28;20037;-56
2021/09/01 06:38:08;;;;;;;9.88;2.20;;;;;;;;;;4998102;28;20120;-57
2021/09/01 06:40:34;;;;;;;7.45;1.80;;;;;;;;;;5003008;28;20053;-57
2021/09/01 06:42:59;;;;;;;10.85;2.33;;;;;;;;;;5006546;28;20042;-57
2021/09/01 06:45:25;;;;;;;12.15;2.08;;;;;;;;;;5008241;28;20045;-56
2021/09/01 06:47:51;;;;;;;8.98;2.00;;;;;;;;;;4999502;28;20061;-57
2021/09/01 06:50:22;;;;;;;15.73;3.15;;;;;;;;;;5002080;28;20059;-56
2021/09/01 06:52:50;;;;;;;15.10;2.60;;;;;;;;;;4999730;28;20292;-56
2021/09/01 06:55:15;;;;;;;11.23;2.55;;;;;;;;;;5002995;28;20116;-56
2021/09/01 06:57:42;;;;;;;12.48;2.30;;;;;;;;;;5005234;28;20196;-56
2021/09/01 07:00:10;;;;;;;11.82;2.55;;;;;;;;;;5001043;28;20026;-56
2021/09/01 07:02:36;;;;;;;8.13;2.47;;;;;;;;;;5000423;28;22426;-57
2021/09/01 07:05:01;;;;;;;10.55;2.97;;;;;;;;;;5005543;28;20065;-56
2021/09/01 07:07:27;;;;;;;13.07;3.40;;;;;;;;;;4998173;28;20480;-57
2021/09/01 07:09:52;;;;;;;10.50;3.13;;;;;;;;;;5001750;28;20045;-57
2021/09/01 07:12:18;;;;;;;7.70;3.47;;;;;;;;;;4999412;28;20081;-58
2021/09/01 07:14:43;;;;;;;7.72;2.45;;;;;;;;;;5007294;28;20498;-58
2021/09/01 07:17:09;;;;;;;12.45;3.00;;;;;;;;;;5006667;28;20038;-57
2021/09/01 07:19:35;;;;;;;11.52;3.05;;;;;;;;;;5001021;28;20034;-58
2021/09/01 07:22:00;;;;;;;12.07;3.28;;;;;;;;;;5004715;28;20378;-58
2021/09/01 07:24:26;;;;;;;13.73;3.42;;;;;;;;;;5008472;28;20056;-58
2021/09/01 07:26:51;;;;;;;11.27;2.72;;;;;;;;;;5003353;28;20029;-58
2021/09/01 07:29:17;;;;;;;7.50;3.25;;;;;;;;;;5006311;28;20049;-58
2021/09/01 07:31:43;;;;;;;18.50;3.53;;;;;;;;;;5005346;28;20025;-58
2021/09/01 07:34:08;;;;;;;8.95;3.33;;;;;;;;;;5007896;28;20118;-58
2021/09/01 07:36:34;;;;;;;16.25;3.67;;;;;;;;;;5007392;28;20025;-58
2021/09/01 07:38:59;;;;;;;13.80;3.63;;;;;;;;;;5006287;28;20054;-57
2021/09/01 07:41:25;;;;;;;12.60;3.42;;;;;;;;;;5007891;28;20057;-58
2021/09/01 07:43:50;;;;;;;15.00;3.42;;;;;;;;;;5007736;28;20034;-58
2021/09/01 07:46:16;;;;;;;11.50;3.78;;;;;;;;;;5005427;28;20072;-58
2021/09/01 07:48:41;;;;;;;13.32;3.67;;;;;;;;;;4994905;28;20022;-57
2021/09/01 07:51:07;;;;;;;19.75;3.97;;;;;;;;;;5005851;28;20038;-58
2021/09/01 07:53:32;;;;;;;12.65;3.75;;;;;;;;;;5003366;28;20144;-58
2021/09/01 07:55:58;;;;;;;14.05;4.07;;;;;;;;;;4999470;28;20030;-58
2021/09/01 07:58:24;;;;;;;9.75;3.60;;;;;;;;;;4999089;28;20150;-58
2021/09/01 08:00:49;;;;;;;9.45;3.22;;;;;;;;;;5005532;28;20034;-57
2021/09/01 08:03:15;;;;;;;16.13;3.72;;;;;;;;;;5002609;28;20037;-57
2021/09/01 08:05:40;;;;;;;12.93;3.78;;;;;;;;;;5001278;28;20408;-58
2021/09/01 08:08:06;;;;;;;19.05;3.70;;;;;;;;;;5000390;28;20511;-58
2021/09/01 08:10:32;;;;;;;16.58;4.35;;;;;;;;;;5001498;28;20052;-57
2021/09/01 08:12:57;;;;;;;10.65;3.60;;;;;;;;;;5000849;28;20037;-57
2021/09/01 08:15:23;;;;;;;15.35;3.92;;;;;;;;;;5003508;28;20045;-57
2021/09/01 08:17:49;;;;;;;13.68;3.58;;;;;;;;;;5004092;28;20128;-57
2021/09/01 08:20:15;;;;;;;8.23;3.72;;;;;;;;;;5000294;28;20129;-58
2021/09/01 08:22:41;;;;;;;13.32;3.45;;;;;;;;;;4999968;28;20029;-58
2021/09/01 08:25:07;;;;;;;16.92;3.53;;;;;;;;;;4994398;28;20042;-58
2021/09/01 08:27:33;;;;;;;20.88;4.00;;;;;;;;;;4996574;28;20041;-58
2021/09/01 08:29:58;;;;;;;16.73;3.75;;;;;;;;;;4996347;28;20529;-58
2021/09/01 08:32:24;;;;;;;15.02;3.88;;;;;;;;;;4998152;28;20052;-58
2021/09/01 08:34:51;;;;;;;10.23;3.70;;;;;;;;;;5001691;28;20049;-58
2021/09/01 08:37:17;;;;;;;9.80;3.05;;;;;;;;;;4998189;28;20575;-58
2021/09/01 08:39:42;;;;;;;11.63;3.88;;;;;;;;;;5002505;28;20065;-58
2021/09/01 08:42:08;;;;;;;18.42;3.90;;;;;;;;;;4995877;28;20050;-58
2021/09/01 08:44:33;;;;;;;13.88;4.15;;;;;;;;;;4998431;28;20065;-58
2021/09/01 08:47:00;;;;;;;10.52;3.13;;;;;;;;;;5001731;28;20030;-58
2021/09/01 08:49:30;;;;;;;8.65;3.53;;;;;;;;;;4999783;28;20341;-58
2021/09/01 08:51:56;;;;;;;13.63;4.30;;;;;;;;;;5006618;28;20030;-58
2021/09/01 08:54:22;;;;;;;7.65;3.70;;;;;;;;;;5004460;28;20061;-58
2021/09/01 08:56:48;;;;;;;9.75;3.35;;;;;;;;;;4996016;28;20072;-58
2021/09/01 08:59:14;;;;;;;10.60;3.47;;;;;;;;;;4998524;28;20033;-58
2021/09/01 09:01:53;;;;;;;9.63;3.25;;;;;;;;;;5001467;28;20038;-58
2021/09/01 09:04:21;;;;;;;13.88;3.80;;;;;;;;;;5005610;28;20113;-58
2021/09/01 09:07:13;;;;;;;9.15;3.22;;;;;;;;;;5004448;28;20030;-58
2021/09/01 09:09:39;;;;;;;7.05;3.33;;;;;;;;;;4993850;28;20096;-58
2021/09/01 09:12:07;;;;;;;9.05;3.33;;;;;;;;;;5005549;28;20049;-58
2021/09/01 09:14:34;;;;;;;6.18;2.80;;;;;;;;;;5004928;28;20058;-58
2021/09/01 09:17:11;;;;;;;8.68;3.35;;;;;;;;;;5004060;28;20076;-58
2021/09/01 09:19:59;;;;;;;8.93;2.80;;;;;;;;;;4998715;28;20477;-58
2021/09/01 09:22:39;;;;;;;12.55;3.92;;;;;;;;;;5003799;28;20037;-58
2021/09/01 09:25:14;;;;;;;8.75;3.58;;;;;;;;;;5000455;28;20066;-58
2021/09/01 09:27:41;;;;;;;8.10;3.40;;;;;;;;;;5004204;28;20511;-58
2021/09/01 09:30:27;;;;;;;10.88;3.63;;;;;;;;;;5004978;28;20508;-58
2021/09/01 09:33:03;;;;;;;9.55;4.00;;;;;;;;;;5010051;28;20100;-58
2021/09/01 09:35:45;;;;;;;6.53;3.50;;;;;;;;;;5009361;28;20064;-58
2021/09/01 09:38:11;;;;;;;12.93;3.33;;;;;;;;;;5004841;28;20083;-57
2021/09/01 09:40:36;;;;;;;10.32;3.55;;;;;;;;;;5005733;28;20050;-58
2021/09/01 09:43:13;;;;;;;9.93;3.30;;;;;;;;;;5008933;28;20091;-58
2021/09/01 09:45:39;;;;;;;10.02;4.13;;;;;;;;;;5001916;28;20088;-58
2021/09/01 09:48:05;;;;;;;10.70;3.35;;;;;;;;;;5005164;28;20034;-58
2021/09/01 09:50:30;;;;;;;10.77;4.28;;;;;;;;;;5009821;28;20028;-58
2021/09/01 09:52:57;;;;;;;12.32;3.30;;;;;;;;;;5008725;28;20487;-58
2021/09/01 09:55:23;;;;;;;9.40;3.63;;;;;;;;;;5007027;28;20034;-58
2021/09/01 09:57:56;;;;;;;9.70;3.58;;;;;;;;;;5004678;28;20413;-58
2021/09/01 10:00:25;;;;;;;7.97;3.58;;;;;;;;;;5006590;28;20014;-58
2021/09/01 10:02:51;;;;;;;10.13;3.38;;;;;;;;;;5009475;28;20033;-58
2021/09/01 10:05:18;;;;;;;7.68;3.42;;;;;;;;;;5006869;28;20439;-58
2021/09/01 10:07:44;;;;;;;12.43;3.75;;;;;;;;;;4998666;28;20053;-58
2021/09/01 10:10:11;;;;;;;10.40;3.33;;;;;;;;;;5006348;28;20030;-58
2021/09/01 10:12:48;;;;;;;10.20;3.40;;;;;;;;;;5007782;28;20022;-58
2021/09/01 10:15:21;;;;;;;18.45;3.70;;;;;;;;;;5002310;28;20436;-58
2021/09/01 10:17:48;;;;;;;10.00;3.25;;;;;;;;;;5003391;28;20038;-58
2021/09/01 10:20:19;;;;;;;8.88;3.45;;;;;;;;;;5006235;28;20022;-56
2021/09/01 10:23:06;;;;;;;11.35;3.45;;;;;;;;;;5009406;28;20398;-58
2021/09/01 10:25:49;;;;;;;7.95;3.35;;;;;;;;;;5000116;28;20109;-58
2021/09/01 10:28:35;;;;;;;6.75;3.00;;;;;;;;;;4999325;28;20064;-58
2021/09/01 10:31:10;;;;;;;8.95;3.20;;;;;;;;;;4998644;28;20042;-58
2021/09/01 10:33:36;;;;;;;5.55;2.92;;;;;;;;;;4993702;28;20030;-58
2021/09/01 10:36:26;;;;;;;5.78;2.90;;;;;;;;;;4996829;28;20021;-58
2021/09/01 10:39:10;;;;;;;6.43;2.75;;;;;;;;;;5003565;28;20045;-58
2021/09/01 10:41:38;;;;;;;7.22;2.90;;;;;;;;;;5003764;28;20492;-58
2021/09/01 10:44:13;;;;;;;8.73;2.75;;;;;;;;;;5005065;28;20030;-58
2021/09/01 10:46:50;;;;;;;10.85;2.78;;;;;;;;;;5003473;28;20567;-59
2021/09/01 10:49:17;;;;;;;7.25;2.88;;;;;;;;;;5006764;28;20049;-57
2021/09/01 10:51:54;;;;;;;5.25;2.95;;;;;;;;;;4996631;28;22317;-59
2021/09/01 10:54:29;;;;;;;7.82;2.40;;;;;;;;;;4996952;28;20065;-59
2021/09/01 10:56:55;;;;;;;7.55;3.30;;;;;;;;;;5005162;28;20029;-58
2021/09/01 10:59:25;;;;;;;8.05;3.97;;;;;;;;;;4996628;28;20037;-58
2021/09/01 11:02:14;;;;;;;7.10;2.72;;;;;;;;;;4997405;28;20060;-58
2021/09/01 11:04:53;;;;;;;8.32;3.30;;;;;;;;;;4995121;28;20357;-58
2021/09/01 11:07:25;;;;;;;7.32;3.08;;;;;;;;;;5007518;28;20405;-58
2021/09/01 11:09:58;;;;;;;21.00;3.58;;;;;;;;;;5007526;28;20523;-58
2021/09/01 11:12:25;;;;;;;12.68;3.60;;;;;;;;;;5001299;28;20076;-58
2021/09/01 11:14:52;;;;;;;11.35;3.80;;;;;;;;;;5002567;28;20033;-58
2021/09/01 11:17:25;;;;;;;17.08;3.58;;;;;;;;;;5003526;28;20400;-58
2021/09/01 11:19:58;;;;;;;13.02;3.92;;;;;;;;;;5004067;28;20084;-58
2021/09/01 11:22:26;;;;;;;9.02;3.63;;;;;;;;;;5002687;28;20118;-58
2021/09/01 11:24:59;;;;;;;11.85;3.10;;;;;;;;;;4999534;28;20042;-58
2021/09/01 11:27:26;;;;;;;9.65;3.63;;;;;;;;;;5003401;28;20625;-58
2021/09/01 11:30:08;;;;;;;8.23;3.17;;;;;;;;;;5002319;28;20061;-58
2021/09/01 11:32:36;;;;;;;11.35;3.45;;;;;;;;;;5000387;28;20025;-58
2021/09/01 11:35:04;;;;;;;9.55;3.47;;;;;;;;;;5001387;28;20052;-58
2021/09/01 11:37:30;;;;;;;9.98;3.60;;;;;;;;;;4995879;28;20081;-58
2021/09/01 11:39:56;;;;;;;5.88;3.03;;;;;;;;;;5005260;28;20034;-57
2021/09/01 11:42:21;;;;;;;10.07;3.20;;;;;;;;;;5007375;28;20238;-58
2021/09/01 11:44:57;;;;;;;22.95;3.92;;;;;;;;;;5007263;28;20030;-58
2021/09/01 11:47:24;;;;;;;12.57;3.33;;;;;;;;;;5005964;28;20042;-57
2021/09/01 11:49:50;;;;;;;11.88;3.03;;;;;;;;;;5007896;28;20030;-58
2021/09/01 11:52:27;;;;;;;6.75;2.97;;;;;;;;;;5006986;28;20420;-58
2021/09/01 11:54:53;;;;;;;12.45;3.17;;;;;;;;;;5008165;28;20560;-58
2021/09/01 11:57:29;;;;;;;7.93;3.38;;;;;;;;;;5003064;28;20099;-58
2021/09/01 11:59:59;;;;;;;14.95;4.70;;;;;;;;;;5004565;28;20456;-59
2021/09/01 12:02:27;;;;;;;10.85;3.25;;;;;;;;;;5008264;28;20485;-58
2021/09/01 12:04:53;;;;;;;8.95;3.30;;;;;;;;;;5007551;28;20088;-58
2021/09/01 12:07:31;;;;;;;7.95;3.33;;;;;;;;;;5008072;28;20030;-58
2021/09/01 12:10:06;;;;;;;8.65;4.18;;;;;;;;;;5004156;28;20038;-58
2021/09/01 12:12:37;;;;;;;9.27;3.55;;;;;;;;;;4996888;28;20026;-58
2021/09/01 12:15:12;;;;;;;12.32;3.83;;;;;;;;;;5007382;28;20489;-59
2021/09/01 12:17:39;;;;;;;8.30;4.13;;;;;;;;;;5006852;28;20028;-58
2021/09/01 12:20:05;;;;;;;11.70;3.90;;;;;;;;;;5005045;28;20030;-58
2021/09/01 12:22:34;;;;;;;11.65;3.70;;;;;;;;;;5004644;28;20034;-58
2021/09/01 12:25:03;;;;;;;13.95;3.78;;;;;;;;;;5006532;28;20104;-58
2021/09/01 12:27:28;;;;;;;10.05;4.13;;;;;;;;;;4994696;28;20058;-58
2021/09/01 12:29:54;;;;;;;9.00;3.72;;;;;;;;;;5001495;28;20128;-58
2021/09/01 12:32:22;;;;;;;7.53;3.30;;;;;;;;;;5007306;28;20034;-58
2021/09/01 12:34:56;;;;;;;8.27;3.42;;;;;;;;;;5003276;28;20037;-58
2021/09/01 12:37:27;;;;;;;9.70;3.30;;;;;;;;;;4997948;28;20239;-59
2021/09/01 12:39:55;;;;;;;12.93;3.40;;;;;;;;;;5005894;28;20025;-60
2021/09/01 12:42:45;;;;;;;10.13;3.20;;;;;;;;;;5007053;28;20089;-59
2021/09/01 12:45:20;;;;;;;11.38;3.67;;;;;;;;;;4999810;28;20053;-58
2021/09/01 12:48:03;;;;;;;7.00;2.95;;;;;;;;;;5004720;28;20076;-58
2021/09/01 12:50:32;;;;;;;9.05;3.55;;;;;;;;;;4998752;28;20547;-59
2021/09/01 12:52:58;;;;;;;11.27;3.25;;;;;;;;;;5006445;28;20045;-59
2021/09/01 12:55:32;;;;;;;11.10;3.80;;;;;;;;;;5007787;28;20468;-58
2021/09/01 12:57:58;;;;;;;9.38;3.25;;;;;;;;;;5005686;28;20027;-59
2021/09/01 13:00:24;;;;;;;10.80;3.63;;;;;;;;;;5006702;28;20060;-59
2021/09/01 13:02:50;;;;;;;7.97;3.20;;;;;;;;;;5005940;28;20029;-58
2021/09/01 13:05:18;;;;;;;17.23;3.67;;;;;;;;;;5004416;28;20030;-58
2021/09/01 13:07:45;;;;;;;9.60;3.60;;;;;;;;;;5005219;28;20436;-58
2021/09/01 13:10:12;;;;;;;8.23;3.50;;;;;;;;;;5006377;28;20365;-58
2021/09/01 13:12:37;;;;;;;14.57;3.10;;;;;;;;;;5007347;28;20053;-59
2021/09/01 13:15:04;;;;;;;6.50;3.15;;;;;;;;;;5006286;28;20057;-58
2021/09/01 13:17:30;;;;;;;7.75;2.83;;;;;;;;;;5001118;28;20547;-58
2021/09/01 13:19:55;;;;;;;13.00;4.20;;;;;;;;;;5005327;28;20042;-58
2021/09/01 13:22:21;;;;;;;10.25;3.50;;;;;;;;;;5007245;28;20072;-58
2021/09/01 13:24:46;;;;;;;14.23;3.88;;;;;;;;;;5004385;28;20080;-59
2021/09/01 13:27:12;;;;;;;16.30;3.15;;;;;;;;;;4999546;28;20042;-59
2021/09/01 13:29:37;;;;;;;13.75;3.33;;;;;;;;;;5006160;28;20034;-58
2021/09/01 13:32:04;;;;;;;8.57;2.50;;;;;;;;;;5006842;28;20038;-58
2021/09/01 13:34:29;;;;;;;4.82;2.40;;;;;;;;;;5004663;28;20032;-58
2021/09/01 13:36:55;;;;;;;8.70;2.42;;;;;;;;;;5005841;28;20034;-58
2021/09/01 13:39:20;;;;;;;7.90;2.97;;;;;;;;;;5004684;28;20034;-58
2021/09/01 13:41:46;;;;;;;5.57;2.10;;;;;;;;;;5005789;28;20112;-58
2021/09/01 13:44:12;;;;;;;5.47;1.63;;;;;;;;;;5007229;28;20026;-58
2021/09/01 13:46:38;;;;;;;9.75;2.25;;;;;;;;;;5004254;28;20029;-58
2021/09/01 13:49:04;;;;;;;6.68;2.03;;;;;;;;;;5002905;28;20134;-59
2021/09/01 13:51:30;;;;;;;4.18;1.73;;;;;;;;;;5006139;28;20484;-58
2021/09/01 13:53:56;;;;;;;4.50;1.80;;;;;;;;;;5006413;28;20041;-58
2021/09/01 13:56:22;;;;;;;5.97;1.83;;;;;;;;;;5005563;28;20561;-58
2021/09/01 13:58:49;;;;;;;10.05;1.70;;;;;;;;;;5005545;28;20452;-58
2021/09/01 14:01:14;;;;;;;6.57;1.60;;;;;;;;;;5005866;28;20044;-58
2021/09/01 14:03:43;;;;;;;6.13;1.30;;;;;;;;;;5006194;28;20025;-58
2021/09/01 14:06:09;;;;;;;6.25;1.88;;;;;;;;;;4998698;28;20034;-58
2021/09/01 14:08:34;;;;;;;4.80;1.40;;;;;;;;;;5003692;28;20081;-58
2021/09/01 14:11:00;;;;;;;5.88;1.70;;;;;;;;;;5006780;28;20033;-58
2021/09/01 14:13:26;;;;;;;5.88;1.70;;;;;;;;;;5005672;28;20595;-58
2021/09/01 14:15:51;;;;;;;4.30;1.40;;;;;;;;;;5009905;28;20101;-59
2021/09/01 14:18:17;;;;;;;3.80;1.30;;;;;;;;;;5008197;28;20088;-58
2021/09/01 14:20:43;;;;;;;5.57;0.80;;;;;;;;;;5006057;28;20115;-58
2021/09/01 14:23:09;;;;;;;6.68;1.02;;;;;;;;;;5009644;28;20535;-57
2021/09/01 14:25:35;;;;;;;6.78;1.30;;;;;;;;;;5005623;28;20123;-59
2021/09/01 14:28:01;;;;;;;5.43;1.27;;;;;;;;;;5008286;28;20037;-59
2021/09/01 14:30:27;;;;;;;3.20;1.13;;;;;;;;;;5006286;28;20459;-59
2021/09/01 14:32:52;;;;;;;4.15;0.98;;;;;;;;;;5008277;28;20021;-58
2021/09/01 14:35:18;;;;;;;5.63;0.93;;;;;;;;;;5005876;28;20041;-58
2021/09/01 14:37:43;;;;;;;6.03;1.08;;;;;;;;;;5008915;28;20079;-58
2021/09/01 14:40:10;;;;;;;4.72;1.48;;;;;;;;;;5001038;28;20421;-59
2021/09/01 14:42:36;;;;;;;2.90;1.13;;;;;;;;;;5008931;28;20026;-59
2021/09/01 14:45:04;;;;;;;2.38;1.30;;;;;;;;;;5008947;28;20076;-59